createdAt,value
2017-11-12T00:00:02.997Z,9.22
2017-11-12T00:00:43.435Z,9.32
2017-11-12T00:01:23.796Z,9.17
2017-11-12T00:02:04.199Z,9.16
2017-11-12T00:02:44.583Z,9.16
2017-11-12T00:03:25.005Z,9.22
2017-11-12T00:04:05.429Z,9.19
2017-11-12T00:04:45.811Z,9.13
2017-11-12T00:05:26.184Z,9.12
2017-11-12T00:06:06.596Z,9.16
2017-11-12T00:06:46.988Z,9.12
2017-11-12T00:07:27.404Z,9.15
2017-11-12T00:08:07.858Z,9.16
2017-11-12T00:08:48.371Z,9.17
2017-11-12T00:09:28.758Z,9.24
2017-11-12T00:10:09.164Z,9.15
2017-11-12T00:10:49.614Z,9.12
2017-11-12T00:11:29.961Z,9.16
2017-11-12T00:12:10.386Z,9.15
2017-11-12T00:12:50.803Z,9.06
2017-11-12T00:13:31.168Z,9.06
2017-11-12T00:14:11.606Z,9.17
2017-11-12T00:14:51.970Z,9.03
2017-11-12T00:15:32.382Z,9.06
2017-11-12T00:16:12.768Z,9.15
2017-11-12T00:16:53.169Z,9.08
2017-11-12T00:17:33.579Z,9.06
2017-11-12T00:18:13.998Z,9.06
2017-11-12T00:18:54.428Z,9.06
2017-11-12T00:19:34.816Z,9.04
2017-11-12T00:20:15.215Z,9.01
2017-11-12T00:20:55.585Z,9.04
2017-11-12T00:21:35.999Z,9.06
2017-11-12T00:22:16.396Z,9.08
2017-11-12T00:22:56.782Z,8.98
2017-11-12T00:23:37.213Z,9.03
2017-11-12T00:24:17.598Z,8.96
2017-11-12T00:24:57.977Z,8.89
2017-11-12T00:25:38.484Z,8.93
2017-11-12T00:26:18.845Z,8.88
2017-11-12T00:26:59.311Z,8.78
2017-11-12T00:27:39.604Z,8.89
2017-11-12T00:28:21.816Z,8.85
2017-11-12T00:29:02.177Z,8.78
2017-11-12T00:29:42.626Z,8.78
2017-11-12T00:30:23.057Z,8.75
2017-11-12T00:31:03.447Z,8.78
2017-11-12T00:31:43.824Z,8.78
2017-11-12T00:32:24.279Z,8.73
2017-11-12T00:33:04.679Z,8.76
2017-11-12T00:33:45.077Z,8.76
2017-11-12T00:34:25.449Z,8.89
2017-11-12T00:35:05.863Z,8.91
2017-11-12T00:35:46.229Z,8.82
2017-11-12T00:36:26.637Z,8.79
2017-11-12T00:37:07.077Z,8.8
2017-11-12T00:37:47.489Z,8.76
2017-11-12T00:38:27.938Z,8.76
2017-11-12T00:39:08.306Z,8.82
2017-11-12T00:39:48.678Z,8.94
2017-11-12T00:40:29.097Z,8.78
2017-11-12T00:41:09.511Z,8.78
2017-11-12T00:41:49.910Z,8.78
2017-11-12T00:42:30.264Z,8.82
2017-11-12T00:43:10.662Z,8.79
2017-11-12T00:43:51.109Z,8.82
2017-11-12T00:44:31.526Z,8.78
2017-11-12T00:45:11.857Z,8.7
2017-11-12T00:45:52.308Z,8.7
2017-11-12T00:46:32.636Z,8.76
2017-11-12T00:47:13.040Z,8.7
2017-11-12T00:47:53.463Z,8.63
2017-11-12T00:48:33.908Z,8.73
2017-11-12T00:49:14.260Z,8.63
2017-11-12T00:49:54.627Z,8.68
2017-11-12T00:50:35.036Z,8.57
2017-11-12T00:51:15.464Z,8.67
2017-11-12T00:51:55.903Z,8.63
2017-11-12T00:52:36.302Z,8.58
2017-11-12T00:53:16.786Z,8.65
2017-11-12T00:53:57.174Z,8.57
2017-11-12T00:54:37.521Z,8.67
2017-11-12T00:55:17.931Z,8.6
2017-11-12T00:55:58.311Z,8.65
2017-11-12T00:56:38.811Z,8.78
2017-11-12T00:57:19.252Z,8.63
2017-11-12T00:57:59.604Z,8.78
2017-11-12T00:58:39.966Z,8.68
2017-11-12T00:59:20.387Z,8.76
2017-11-12T01:00:00.773Z,8.82
2017-11-12T01:00:41.275Z,8.73
2017-11-12T01:01:21.722Z,8.76
2017-11-12T01:02:02.142Z,8.76
2017-11-12T01:02:42.517Z,8.79
2017-11-12T01:03:22.953Z,8.75
2017-11-12T01:04:03.385Z,8.71
2017-11-12T01:04:43.787Z,8.76
2017-11-12T01:05:24.240Z,8.71
2017-11-12T01:06:04.646Z,8.71
2017-11-12T01:06:45.036Z,8.65
2017-11-12T01:07:25.456Z,8.63
2017-11-12T01:08:05.884Z,8.71
2017-11-12T01:08:46.295Z,8.67
2017-11-12T01:09:26.668Z,8.68
2017-11-12T01:10:07.093Z,8.67
2017-11-12T01:10:47.481Z,8.63
2017-11-12T01:11:27.975Z,8.65
2017-11-12T01:12:08.327Z,8.6
2017-11-12T01:12:48.767Z,8.55
2017-11-12T01:13:29.112Z,8.55
2017-11-12T01:14:09.541Z,8.57
2017-11-12T01:14:49.887Z,8.58
2017-11-12T01:15:30.369Z,8.6
2017-11-12T01:16:10.712Z,8.67
2017-11-12T01:16:51.071Z,8.65
2017-11-12T01:17:31.530Z,8.76
2017-11-12T01:18:11.884Z,8.7
2017-11-12T01:18:52.279Z,8.65
2017-11-12T01:19:32.697Z,8.71
2017-11-12T01:20:13.097Z,8.65
2017-11-12T01:20:53.447Z,8.65
2017-11-12T01:21:33.836Z,8.65
2017-11-12T01:22:14.205Z,8.64
2017-11-12T01:22:54.655Z,8.7
2017-11-12T01:23:35.045Z,8.64
2017-11-12T01:24:15.502Z,8.7
2017-11-12T01:24:55.881Z,8.67
2017-11-12T01:25:36.214Z,8.67
2017-11-12T01:26:16.602Z,8.63
2017-11-12T01:26:56.992Z,8.63
2017-11-12T01:27:37.455Z,8.65
2017-11-12T01:28:17.868Z,8.71
2017-11-12T01:28:58.296Z,8.67
2017-11-12T01:29:38.700Z,8.67
2017-11-12T01:30:19.104Z,8.68
2017-11-12T01:30:59.512Z,8.52
2017-11-12T01:31:39.870Z,8.6
2017-11-12T01:32:20.327Z,8.57
2017-11-12T01:33:00.833Z,8.68
2017-11-12T01:33:41.214Z,8.67
2017-11-12T01:34:21.609Z,8.7
2017-11-12T01:35:02.012Z,8.67
2017-11-12T01:35:42.424Z,8.7
2017-11-12T01:36:22.812Z,8.64
2017-11-12T01:37:03.286Z,8.63
2017-11-12T01:37:43.653Z,8.73
2017-11-12T01:38:24.053Z,8.65
2017-11-12T01:39:04.479Z,8.68
2017-11-12T01:39:44.897Z,8.65
2017-11-12T01:40:25.280Z,8.67
2017-11-12T01:41:05.804Z,8.75
2017-11-12T01:41:46.155Z,8.78
2017-11-12T01:42:26.572Z,8.73
2017-11-12T01:43:06.987Z,8.79
2017-11-12T01:43:47.450Z,8.78
2017-11-12T01:44:27.808Z,8.88
2017-11-12T01:45:08.196Z,8.88
2017-11-12T01:45:48.635Z,8.91
2017-11-12T01:46:29.049Z,8.88
2017-11-12T01:47:09.457Z,8.85
2017-11-12T01:47:49.868Z,8.82
2017-11-12T01:48:30.316Z,8.76
2017-11-12T01:49:10.741Z,8.76
2017-11-12T01:49:51.099Z,8.75
2017-11-12T01:50:31.515Z,8.64
2017-11-12T01:51:11.891Z,8.75
2017-11-12T01:51:52.270Z,8.7
2017-11-12T01:52:32.689Z,8.76
2017-11-12T01:53:13.071Z,8.78
2017-11-12T01:53:53.443Z,8.82
2017-11-12T01:54:33.808Z,8.75
2017-11-12T01:55:14.275Z,8.71
2017-11-12T01:55:54.679Z,8.71
2017-11-12T01:56:35.066Z,8.76
2017-11-12T01:57:15.436Z,8.75
2017-11-12T01:57:55.875Z,8.7
2017-11-12T01:58:36.235Z,8.71
2017-11-12T01:59:16.627Z,8.73
2017-11-12T01:59:57.067Z,8.73
2017-11-12T02:00:37.458Z,8.75
2017-11-12T02:01:17.927Z,8.79
2017-11-12T02:01:58.316Z,8.73
2017-11-12T02:02:38.714Z,8.75
2017-11-12T02:03:19.115Z,8.71
2017-11-12T02:03:59.464Z,8.73
2017-11-12T02:04:39.848Z,8.68
2017-11-12T02:05:20.301Z,8.68
2017-11-12T02:06:00.713Z,8.65
2017-11-12T02:06:41.010Z,8.71
2017-11-12T02:07:21.410Z,8.65
2017-11-12T02:08:01.819Z,8.67
2017-11-12T02:08:42.204Z,8.65
2017-11-12T02:09:22.575Z,8.7
2017-11-12T02:10:02.974Z,8.76
2017-11-12T02:10:43.349Z,8.67
2017-11-12T02:11:23.836Z,8.7
2017-11-12T02:12:04.285Z,8.6
2017-11-12T02:12:44.718Z,8.55
2017-11-12T02:13:25.094Z,8.6
2017-11-12T02:14:05.436Z,8.57
2017-11-12T02:14:45.859Z,8.6
2017-11-12T02:15:26.258Z,8.58
2017-11-12T02:16:06.706Z,8.58
2017-11-12T02:16:47.086Z,8.55
2017-11-12T02:17:27.488Z,8.61
2017-11-12T02:18:07.873Z,8.57
2017-11-12T02:18:48.217Z,8.55
2017-11-12T02:19:28.631Z,8.57
2017-11-12T02:20:09.037Z,8.55
2017-11-12T02:20:49.465Z,8.57
2017-11-12T02:21:29.828Z,8.42
2017-11-12T02:22:10.262Z,8.46
2017-11-12T02:22:50.649Z,8.49
2017-11-12T02:23:31.047Z,8.52
2017-11-12T02:24:11.436Z,8.34
2017-11-12T02:24:51.840Z,8.52
2017-11-12T02:25:32.243Z,8.46
2017-11-12T02:26:12.690Z,8.54
2017-11-12T02:26:53.109Z,8.47
2017-11-12T02:27:33.524Z,8.64
2017-11-12T02:28:13.939Z,8.63
2017-11-12T02:28:54.332Z,8.58
2017-11-12T02:29:34.652Z,8.5
2017-11-12T02:30:15.129Z,8.52
2017-11-12T02:30:55.513Z,8.5
2017-11-12T02:31:35.889Z,8.52
2017-11-12T02:32:16.296Z,8.55
2017-11-12T02:32:56.743Z,8.6
2017-11-12T02:33:37.176Z,8.58
2017-11-12T02:34:17.597Z,8.54
2017-11-12T02:34:57.962Z,8.55
2017-11-12T02:35:38.356Z,8.54
2017-11-12T02:36:18.742Z,8.61
2017-11-12T02:36:59.178Z,8.49
2017-11-12T02:37:39.532Z,8.57
2017-11-12T02:38:19.948Z,8.54
2017-11-12T02:39:00.368Z,8.5
2017-11-12T02:39:40.720Z,8.52
2017-11-12T02:40:21.204Z,8.63
2017-11-12T02:41:01.580Z,8.67
2017-11-12T02:41:41.980Z,8.67
2017-11-12T02:42:22.423Z,8.63
2017-11-12T02:43:02.846Z,8.67
2017-11-12T02:43:43.282Z,8.65
2017-11-12T02:44:23.695Z,8.61
2017-11-12T02:45:04.115Z,8.7
2017-11-12T02:45:44.508Z,8.58
2017-11-12T02:46:24.937Z,8.6
2017-11-12T02:47:05.334Z,8.6
2017-11-12T02:47:45.761Z,8.6
2017-11-12T02:48:26.162Z,8.54
2017-11-12T02:49:06.618Z,8.54
2017-11-12T02:49:47.060Z,8.5
2017-11-12T02:50:27.439Z,8.52
2017-11-12T02:51:07.784Z,8.49
2017-11-12T02:51:48.167Z,8.43
2017-11-12T02:52:28.540Z,8.49
2017-11-12T02:53:08.957Z,8.54
2017-11-12T02:53:49.400Z,8.47
2017-11-12T02:54:29.793Z,8.4
2017-11-12T02:55:10.185Z,8.5
2017-11-12T02:55:50.620Z,8.54
2017-11-12T02:56:31.098Z,8.39
2017-11-12T02:57:11.493Z,8.34
2017-11-12T02:57:51.894Z,8.37
2017-11-12T02:58:32.318Z,8.4
2017-11-12T02:59:12.697Z,8.31
2017-11-12T02:59:53.064Z,8.27
2017-11-12T03:00:33.539Z,8.29
2017-11-12T03:01:13.871Z,8.28
2017-11-12T03:01:54.316Z,8.32
2017-11-12T03:02:34.757Z,8.24
2017-11-12T03:03:15.088Z,8.28
2017-11-12T03:03:55.469Z,8.2
2017-11-12T03:04:35.859Z,8.18
2017-11-12T03:05:16.257Z,8.2
2017-11-12T03:05:56.640Z,8.04
2017-11-12T03:06:37.045Z,8.13
2017-11-12T03:07:17.468Z,8.07
2017-11-12T03:07:57.875Z,8.07
2017-11-12T03:08:38.319Z,8.07
2017-11-12T03:09:18.692Z,8.2
2017-11-12T03:09:59.026Z,8.04
2017-11-12T03:10:39.458Z,8.02
2017-11-12T03:11:19.866Z,7.99
2017-11-12T03:12:00.317Z,7.95
2017-11-12T03:12:40.756Z,7.94
2017-11-12T03:13:21.237Z,7.92
2017-11-12T03:14:01.608Z,7.96
2017-11-12T03:14:41.973Z,7.94
2017-11-12T03:15:22.368Z,7.95
2017-11-12T03:16:02.753Z,7.84
2017-11-12T03:16:43.160Z,7.81
2017-11-12T03:17:23.510Z,7.82
2017-11-12T03:18:03.965Z,7.81
2017-11-12T03:18:44.374Z,7.82
2017-11-12T03:19:24.732Z,7.82
2017-11-12T03:20:05.208Z,7.71
2017-11-12T03:20:45.576Z,7.69
2017-11-12T03:21:25.916Z,7.73
2017-11-12T03:22:06.371Z,7.74
2017-11-12T03:22:46.746Z,7.79
2017-11-12T03:23:27.215Z,7.85
2017-11-12T03:24:07.595Z,7.85
2017-11-12T03:24:48.077Z,7.96
2017-11-12T03:25:28.449Z,7.86
2017-11-12T03:26:08.884Z,7.92
2017-11-12T03:26:49.259Z,7.92
2017-11-12T03:27:29.723Z,7.89
2017-11-12T03:28:10.081Z,7.96
2017-11-12T03:28:50.471Z,7.94
2017-11-12T03:29:30.956Z,7.96
2017-11-12T03:30:11.379Z,7.96
2017-11-12T03:30:51.785Z,7.95
2017-11-12T03:31:32.143Z,7.96
2017-11-12T03:32:12.501Z,7.91
2017-11-12T03:32:52.912Z,7.89
2017-11-12T03:33:33.357Z,7.99
2017-11-12T03:34:13.834Z,7.94
2017-11-12T03:34:54.201Z,7.94
2017-11-12T03:35:34.641Z,7.94
2017-11-12T03:36:15.056Z,7.94
2017-11-12T03:36:55.408Z,7.95
2017-11-12T03:37:35.877Z,7.94
2017-11-12T03:38:16.279Z,7.94
2017-11-12T03:38:56.683Z,7.94
2017-11-12T03:39:37.233Z,7.95
2017-11-12T03:40:17.644Z,7.94
2017-11-12T03:40:58.090Z,7.95
2017-11-12T03:41:38.527Z,7.89
2017-11-12T03:42:18.876Z,7.95
2017-11-12T03:42:59.383Z,7.96
2017-11-12T03:43:39.774Z,8.03
2017-11-12T03:44:20.198Z,7.89
2017-11-12T03:45:00.617Z,7.95
2017-11-12T03:45:40.993Z,7.84
2017-11-12T03:46:21.424Z,7.77
2017-11-12T03:47:01.752Z,7.82
2017-11-12T03:47:42.154Z,7.77
2017-11-12T03:48:22.587Z,7.79
2017-11-12T03:49:02.998Z,7.71
2017-11-12T03:49:43.345Z,7.66
2017-11-12T03:50:23.750Z,7.74
2017-11-12T03:51:04.111Z,7.76
2017-11-12T03:51:44.549Z,7.73
2017-11-12T03:52:24.975Z,7.82
2017-11-12T03:53:05.372Z,7.82
2017-11-12T03:53:45.745Z,7.74
2017-11-12T03:54:26.205Z,7.79
2017-11-12T03:55:06.630Z,7.71
2017-11-12T03:55:46.996Z,7.82
2017-11-12T03:56:27.464Z,7.74
2017-11-12T03:57:07.844Z,7.74
2017-11-12T03:57:48.210Z,7.81
2017-11-12T03:58:28.699Z,7.73
2017-11-12T03:59:09.102Z,7.73
2017-11-12T04:00:56.464Z,7.73
2017-11-12T04:42:10.201Z,6.35
2017-11-12T04:42:49.847Z,6.32
2017-11-12T04:43:30.245Z,6.39
2017-11-12T04:44:10.567Z,6.25
2017-11-12T04:44:51.005Z,6.38
2017-11-12T04:45:31.391Z,6.25
2017-11-12T04:46:11.797Z,6.32
2017-11-12T04:46:52.175Z,6.33
2017-11-12T04:47:32.514Z,6.3
2017-11-12T04:48:12.982Z,6.33
2017-11-12T04:48:53.358Z,6.33
2017-11-12T04:49:33.753Z,6.33
2017-11-12T04:50:14.221Z,6.42
2017-11-12T04:50:54.571Z,6.45
2017-11-12T04:51:35.031Z,6.43
2017-11-12T04:52:15.340Z,6.43
2017-11-12T04:52:55.914Z,6.55
2017-11-12T04:53:36.230Z,6.46
2017-11-12T04:54:16.613Z,6.53
2017-11-12T04:54:57.020Z,6.55
2017-11-12T04:55:37.490Z,6.5
2017-11-12T04:56:17.912Z,6.53
2017-11-12T04:56:58.322Z,6.57
2017-11-12T04:57:38.716Z,6.55
2017-11-12T04:58:19.127Z,6.54
2017-11-12T04:58:59.464Z,6.57
2017-11-12T04:59:39.988Z,6.69
2017-11-12T05:00:20.327Z,6.76
2017-11-12T05:01:00.794Z,6.79
2017-11-12T05:01:41.098Z,6.82
2017-11-12T05:02:21.532Z,6.86
2017-11-12T05:03:01.945Z,6.96
2017-11-12T05:03:42.369Z,7.07
2017-11-12T05:04:22.710Z,7.11
2017-11-12T05:05:03.249Z,7.14
2017-11-12T05:05:43.511Z,7.18
2017-11-12T05:06:24.007Z,7.15
2017-11-12T05:07:04.372Z,7.19
2017-11-12T05:07:44.739Z,7.15
2017-11-12T05:08:27.033Z,7.23
2017-11-12T05:09:07.533Z,7.26
2017-11-12T05:09:47.817Z,7.26
2017-11-12T05:10:28.434Z,7.23
2017-11-12T05:11:08.764Z,7.24
2017-11-12T05:11:49.134Z,7.34
2017-11-12T05:12:29.621Z,7.36
2017-11-12T05:13:09.972Z,7.34
2017-11-12T05:13:50.362Z,7.29
2017-11-12T05:14:30.782Z,7.33
2017-11-12T05:15:11.214Z,7.39
2017-11-12T05:15:51.682Z,7.37
2017-11-12T05:16:32.035Z,7.47
2017-11-12T05:17:12.491Z,7.51
2017-11-12T05:17:52.865Z,7.47
2017-11-12T05:18:33.334Z,7.45
2017-11-12T05:19:13.788Z,7.51
2017-11-12T05:19:54.230Z,7.5
2017-11-12T05:20:34.691Z,7.48
2017-11-12T05:21:15.024Z,7.48
2017-11-12T05:21:55.487Z,7.55
2017-11-12T05:22:35.819Z,7.48
2017-11-12T05:23:16.364Z,7.55
2017-11-12T05:23:56.632Z,7.55
2017-11-12T05:24:37.205Z,7.57
2017-11-12T05:25:17.730Z,7.62
2017-11-12T05:25:57.997Z,7.84
2017-11-12T05:26:38.381Z,7.95
2017-11-12T05:27:18.870Z,7.94
2017-11-12T05:27:59.208Z,7.99
2017-11-12T05:28:39.689Z,8.04
2017-11-12T05:29:20.039Z,8.06
2017-11-12T05:30:00.412Z,8.07
2017-11-12T05:30:40.892Z,8
2017-11-12T05:31:21.396Z,8.06
2017-11-12T05:32:01.637Z,8.06
2017-11-12T05:32:42.109Z,8
2017-11-12T05:33:25.024Z,7.94
2017-11-12T05:34:04.168Z,7.92
2017-11-12T05:34:44.673Z,7.99
2017-11-12T05:35:25.097Z,7.95
2017-11-12T05:36:05.451Z,7.81
2017-11-12T05:36:45.933Z,7.95
2017-11-12T05:37:26.322Z,7.82
2017-11-12T05:38:06.696Z,7.84
2017-11-12T05:38:47.039Z,7.86
2017-11-12T05:39:27.414Z,7.94
2017-11-12T05:40:07.934Z,7.99
2017-11-12T05:40:48.353Z,7.91
2017-11-12T05:41:28.668Z,7.94
2017-11-12T05:42:09.159Z,7.84
2017-11-12T05:42:49.511Z,7.99
2017-11-12T05:43:29.962Z,7.94
2017-11-12T05:44:10.342Z,7.95
2017-11-12T05:44:50.742Z,7.95
2017-11-12T05:45:31.150Z,7.95
2017-11-12T05:46:11.603Z,7.95
2017-11-12T05:46:51.954Z,7.89
2017-11-12T05:47:32.478Z,7.96
2017-11-12T05:48:12.861Z,7.95
2017-11-12T05:48:53.293Z,7.96
2017-11-12T05:49:33.652Z,7.95
2017-11-12T05:50:14.083Z,7.92
2017-11-12T05:50:54.476Z,8.06
2017-11-12T05:51:34.846Z,7.96
2017-11-12T05:52:15.301Z,8.04
2017-11-12T05:52:55.677Z,8.02
2017-11-12T05:53:36.085Z,8.02
2017-11-12T05:54:16.514Z,8.09
2017-11-12T05:54:56.950Z,8.02
2017-11-12T05:55:37.373Z,8.06
2017-11-12T05:56:17.728Z,8.06
2017-11-12T05:56:58.163Z,8.02
2017-11-12T05:57:38.581Z,7.99
2017-11-12T05:58:18.843Z,7.96
2017-11-12T05:58:59.401Z,7.92
2017-11-12T05:59:39.783Z,7.96
2017-11-12T06:00:20.147Z,8
2017-11-12T06:01:00.562Z,8.03
2017-11-12T06:01:41.041Z,7.88
2017-11-12T06:02:21.363Z,7.91
2017-11-12T06:03:01.807Z,7.95
2017-11-12T06:03:42.269Z,7.94
2017-11-12T06:04:22.618Z,7.94
2017-11-12T06:05:03.043Z,7.92
2017-11-12T06:05:43.448Z,7.88
2017-11-12T06:06:23.778Z,7.95
2017-11-12T06:07:04.234Z,7.95
2017-11-12T06:07:44.629Z,7.91
2017-11-12T06:08:25.116Z,7.95
2017-11-12T06:09:05.660Z,7.94
2017-11-12T06:09:45.982Z,7.91
2017-11-12T06:10:26.381Z,7.96
2017-11-12T06:11:06.888Z,8
2017-11-12T06:11:47.332Z,7.95
2017-11-12T06:12:27.625Z,7.94
2017-11-12T06:13:08.115Z,7.89
2017-11-12T06:13:48.743Z,7.74
2017-11-12T06:14:29.027Z,7.82
2017-11-12T06:15:09.434Z,7.82
2017-11-12T06:15:49.993Z,7.96
2017-11-12T06:16:30.565Z,7.91
2017-11-12T06:17:10.794Z,8.1
2017-11-12T06:17:51.111Z,8.06
2017-11-12T06:18:31.543Z,8.24
2017-11-12T06:19:12.054Z,8.25
2017-11-12T06:19:52.330Z,8.2
2017-11-12T06:20:32.788Z,8.14
2017-11-12T06:21:13.133Z,8.27
2017-11-12T06:21:53.484Z,8.32
2017-11-12T06:22:33.881Z,8.31
2017-11-12T06:23:14.382Z,8.28
2017-11-12T06:23:54.817Z,8.39
2017-11-12T06:24:35.151Z,8.32
2017-11-12T06:25:15.530Z,8.28
2017-11-12T06:25:56.019Z,8.4
2017-11-12T06:26:36.364Z,8.42
2017-11-12T06:27:16.809Z,8.49
2017-11-12T06:27:57.240Z,8.57
2017-11-12T06:28:37.642Z,8.61
2017-11-12T06:29:17.991Z,8.55
2017-11-12T06:29:58.385Z,8.58
2017-11-12T06:30:38.746Z,8.52
2017-11-12T06:31:19.148Z,8.61
2017-11-12T06:31:59.503Z,8.46
2017-11-12T06:32:39.903Z,8.42
2017-11-12T06:33:20.378Z,8.32
2017-11-12T06:34:00.781Z,8.27
2017-11-12T06:34:41.161Z,8.27
2017-11-12T06:35:21.597Z,8.34
2017-11-12T06:36:02.017Z,8.24
2017-11-12T06:36:42.374Z,8.24
2017-11-12T06:37:22.792Z,8.2
2017-11-12T06:38:03.268Z,8.31
2017-11-12T06:38:43.723Z,8.39
2017-11-12T06:39:24.038Z,8.43
2017-11-12T06:40:04.477Z,8.6
2017-11-12T06:40:44.741Z,8.61
2017-11-12T06:41:25.201Z,8.6
2017-11-12T06:42:05.646Z,8.65
2017-11-12T06:42:46.042Z,8.55
2017-11-12T06:43:26.553Z,8.64
2017-11-12T06:44:06.920Z,8.57
2017-11-12T06:44:47.419Z,8.52
2017-11-12T06:45:27.897Z,8.58
2017-11-12T06:46:08.227Z,8.57
2017-11-12T06:46:48.627Z,8.57
2017-11-12T06:47:29.779Z,8.58
2017-11-12T06:48:09.493Z,8.55
2017-11-12T06:48:49.853Z,8.52
2017-11-12T06:49:30.198Z,8.47
2017-11-12T06:50:10.638Z,8.54
2017-11-12T06:50:51.025Z,8.46
2017-11-12T06:51:31.426Z,8.4
2017-11-12T06:52:11.840Z,8.34
2017-11-12T06:52:52.173Z,8.32
2017-11-12T06:53:32.610Z,8.28
2017-11-12T06:54:12.983Z,8.36
2017-11-12T06:54:53.405Z,8.29
2017-11-12T06:55:33.752Z,8.28
2017-11-12T06:56:14.255Z,8.29
2017-11-12T06:56:54.609Z,8.37
2017-11-12T06:57:34.948Z,8.42
2017-11-12T06:58:15.321Z,8.55
2017-11-12T06:58:55.750Z,8.57
2017-11-12T06:59:36.149Z,8.54
2017-11-12T07:00:16.601Z,8.57
2017-11-12T07:00:57.042Z,8.57
2017-11-12T07:01:37.377Z,8.57
2017-11-12T07:02:17.721Z,8.5
2017-11-12T07:02:58.218Z,8.46
2017-11-12T07:03:38.582Z,8.57
2017-11-12T07:04:18.940Z,8.45
2017-11-12T07:04:59.502Z,8.55
2017-11-12T07:05:39.877Z,8.55
2017-11-12T07:06:20.252Z,8.57
2017-11-12T07:07:00.625Z,8.73
2017-11-12T07:07:43.936Z,8.67
2017-11-12T07:08:24.345Z,8.65
2017-11-12T07:09:04.741Z,8.78
2017-11-12T07:09:45.488Z,8.73
2017-11-12T07:10:25.692Z,8.64
2017-11-12T07:11:06.085Z,8.76
2017-11-12T07:11:46.639Z,8.55
2017-11-12T07:12:27.049Z,8.54
2017-11-12T07:13:07.329Z,8.47
2017-11-12T07:13:47.812Z,8.5
2017-11-12T07:14:28.112Z,8.57
2017-11-12T07:15:08.517Z,8.47
2017-11-12T07:15:49.002Z,8.47
2017-11-12T07:16:29.342Z,8.47
2017-11-12T07:17:09.885Z,8.45
2017-11-12T07:17:50.220Z,8.49
2017-11-12T07:18:30.607Z,8.54
2017-11-12T07:19:11.105Z,8.43
2017-11-12T07:19:51.549Z,8.52
2017-11-12T07:20:32.024Z,8.45
2017-11-12T07:21:12.395Z,8.39
2017-11-12T07:21:52.815Z,8.37
2017-11-12T07:22:33.158Z,8.37
2017-11-12T07:23:13.655Z,8.34
2017-11-12T07:23:54.043Z,8.32
2017-11-12T07:24:34.400Z,8.31
2017-11-12T07:25:15.645Z,8.31
2017-11-12T07:25:55.981Z,8.28
2017-11-12T07:26:36.543Z,8.28
2017-11-12T07:27:16.914Z,8.29
2017-11-12T07:27:57.515Z,8.18
2017-11-12T07:28:38.324Z,8.14
2017-11-12T07:29:18.747Z,8.2
2017-11-12T07:29:59.195Z,8.21
2017-11-12T07:30:39.697Z,8.21
2017-11-12T07:31:19.889Z,8.17
2017-11-12T07:32:00.522Z,8.18
2017-11-12T07:32:41.005Z,8.18
2017-11-12T07:33:21.253Z,8.2
2017-11-12T07:34:01.807Z,8
2017-11-12T07:34:42.424Z,8.02
2017-11-12T07:35:22.902Z,7.91
2017-11-12T07:36:03.182Z,7.99
2017-11-12T07:36:43.961Z,7.91
2017-11-12T07:37:27.577Z,7.84
2017-11-12T07:38:07.954Z,7.91
2017-11-12T07:38:48.335Z,7.92
2017-11-12T07:39:28.836Z,7.95
2017-11-12T07:40:09.253Z,7.92
2017-11-12T07:40:49.651Z,7.96
2017-11-12T07:41:31.269Z,7.91
2017-11-12T07:42:11.611Z,7.86
2017-11-12T07:42:55.670Z,7.88
2017-11-12T07:43:34.345Z,7.92
2017-11-12T07:44:14.692Z,7.92
2017-11-12T07:44:55.169Z,7.82
2017-11-12T07:45:35.676Z,7.82
2017-11-12T07:46:16.000Z,7.82
2017-11-12T07:46:56.312Z,7.91
2017-11-12T07:47:36.751Z,7.89
2017-11-12T07:48:17.152Z,7.92
2017-11-12T07:48:57.529Z,7.94
2017-11-12T07:49:37.954Z,7.94
2017-11-12T07:50:18.627Z,7.91
2017-11-12T07:50:58.925Z,7.95
2017-11-12T07:51:39.306Z,7.96
2017-11-12T07:52:19.790Z,7.95
2017-11-12T07:53:00.214Z,7.96
2017-11-12T07:53:40.624Z,7.81
2017-11-12T07:54:21.098Z,7.86
2017-11-12T07:55:01.447Z,7.79
2017-11-12T07:55:41.912Z,7.7
2017-11-12T07:56:22.324Z,7.76
2017-11-12T07:57:02.811Z,7.69
2017-11-12T07:57:43.285Z,7.67
2017-11-12T07:58:23.670Z,7.62
2017-11-12T07:59:04.040Z,7.62
2017-11-12T07:59:44.519Z,7.57
2017-11-12T08:00:24.953Z,7.58
2017-11-12T08:01:05.330Z,7.62
2017-11-12T08:01:45.921Z,7.63
2017-11-12T08:02:26.253Z,7.73
2017-11-12T08:03:06.700Z,7.7
2017-11-12T08:03:47.088Z,7.7
2017-11-12T08:04:27.499Z,7.71
2017-11-12T08:05:07.890Z,7.77
2017-11-12T08:05:48.307Z,7.77
2017-11-12T08:06:28.761Z,7.81
2017-11-12T08:07:09.139Z,7.82
2017-11-12T08:07:49.571Z,7.74
2017-11-12T08:08:30.005Z,7.79
2017-11-12T08:09:10.330Z,7.81
2017-11-12T08:09:50.791Z,7.84
2017-11-12T08:10:31.162Z,7.85
2017-11-12T08:11:11.509Z,7.71
2017-11-12T08:11:51.949Z,7.73
2017-11-12T08:12:32.399Z,7.74
2017-11-12T08:13:12.785Z,7.7
2017-11-12T08:13:53.202Z,7.66
2017-11-12T08:14:33.532Z,7.71
2017-11-12T08:15:13.929Z,7.82
2017-11-12T08:15:54.393Z,7.76
2017-11-12T08:16:34.781Z,7.71
2017-11-12T08:17:15.185Z,7.79
2017-11-12T08:17:55.649Z,7.82
2017-11-12T08:18:35.987Z,7.88
2017-11-12T08:19:16.509Z,7.95
2017-11-12T08:19:56.939Z,7.89
2017-11-12T08:20:37.382Z,7.82
2017-11-12T08:21:17.750Z,7.86
2017-11-12T08:21:58.157Z,7.82
2017-11-12T08:22:38.589Z,7.77
2017-11-12T08:23:18.966Z,7.86
2017-11-12T08:23:59.339Z,7.79
2017-11-12T08:24:39.872Z,7.85
2017-11-12T08:25:20.101Z,7.81
2017-11-12T08:26:00.518Z,7.79
2017-11-12T08:26:40.893Z,7.95
2017-11-12T08:27:21.317Z,7.84
2017-11-12T08:28:01.723Z,7.95
2017-11-12T08:28:42.343Z,7.94
2017-11-12T08:29:22.689Z,7.91
2017-11-12T08:30:03.131Z,7.95
2017-11-12T08:30:43.548Z,8.02
2017-11-12T08:31:23.867Z,7.95
2017-11-12T08:32:04.362Z,7.96
2017-11-12T08:32:44.792Z,7.94
2017-11-12T08:33:25.291Z,7.94
2017-11-12T08:34:05.633Z,7.91
2017-11-12T08:34:46.067Z,7.94
2017-11-12T08:35:26.406Z,7.89
2017-11-12T08:36:06.882Z,7.84
2017-11-12T08:36:47.208Z,7.82
2017-11-12T08:37:27.667Z,7.81
2017-11-12T08:38:08.051Z,7.85
2017-11-12T08:38:48.493Z,7.74
2017-11-12T08:39:28.882Z,7.73
2017-11-12T08:40:09.370Z,7.82
2017-11-12T08:40:49.690Z,7.69
2017-11-12T08:41:30.050Z,7.76
2017-11-12T08:42:10.506Z,7.81
2017-11-12T08:42:50.885Z,7.77
2017-11-12T08:43:31.357Z,7.82
2017-11-12T08:44:11.925Z,7.79
2017-11-12T08:44:52.295Z,7.84
2017-11-12T08:45:32.776Z,7.84
2017-11-12T08:46:13.176Z,7.85
2017-11-12T08:46:53.569Z,7.82
2017-11-12T08:47:33.941Z,7.95
2017-11-12T08:48:14.334Z,7.95
2017-11-12T08:48:54.760Z,7.92
2017-11-12T08:49:35.252Z,7.92
2017-11-12T08:50:15.590Z,8.04
2017-11-12T08:50:56.031Z,8.02
2017-11-12T08:51:37.254Z,8.06
2017-11-12T08:52:17.627Z,8.07
2017-11-12T08:52:58.004Z,8.14
2017-11-12T08:53:38.433Z,8.14
2017-11-12T08:54:18.892Z,8.2
2017-11-12T08:54:59.298Z,8.25
2017-11-12T08:55:39.751Z,8.29
2017-11-12T08:56:20.189Z,8.4
2017-11-12T08:57:00.613Z,8.46
2017-11-12T08:57:41.035Z,8.5
2017-11-12T08:58:21.552Z,8.5
2017-11-12T08:59:01.879Z,8.47
2017-11-12T08:59:42.755Z,8.52
2017-11-12T09:00:23.092Z,8.5
2017-11-12T09:01:03.502Z,8.5
2017-11-12T09:01:43.992Z,8.54
2017-11-12T09:02:24.398Z,8.5
2017-11-12T09:03:04.918Z,8.73
2017-11-12T09:03:45.366Z,8.78
2017-11-12T09:04:25.793Z,8.79
2017-11-12T09:05:06.247Z,8.78
2017-11-12T09:05:46.650Z,8.76
2017-11-12T09:06:27.046Z,8.79
2017-11-12T09:07:08.090Z,8.96
2017-11-12T09:07:48.246Z,8.91
2017-11-12T09:08:29.017Z,9
2017-11-12T09:09:09.471Z,9.06
2017-11-12T09:09:49.966Z,9.23
2017-11-12T09:10:30.446Z,9.2
2017-11-12T09:11:10.789Z,9.31
2017-11-12T09:11:51.267Z,9.31
2017-11-12T09:12:31.618Z,9.3
2017-11-12T09:13:12.211Z,9.27
2017-11-12T09:13:52.495Z,9.27
2017-11-12T09:14:32.988Z,9.32
2017-11-12T09:15:13.401Z,9.31
2017-11-12T09:15:53.796Z,9.34
2017-11-12T09:16:34.199Z,9.32
2017-11-12T09:17:14.562Z,9.34
2017-11-12T09:17:55.017Z,9.4
2017-11-12T09:18:35.439Z,9.34
2017-11-12T09:19:15.857Z,9.32
2017-11-12T09:19:56.332Z,9.24
2017-11-12T09:20:36.715Z,9.34
2017-11-12T09:21:17.118Z,9.3
2017-11-12T09:21:57.863Z,9.41
2017-11-12T09:22:38.181Z,9.38
2017-11-12T09:23:18.667Z,9.41
2017-11-12T09:23:59.136Z,9.31
2017-11-12T09:24:39.549Z,9.32
2017-11-12T09:25:19.943Z,9.26
2017-11-12T09:26:00.277Z,9.26
2017-11-12T09:26:40.686Z,9.27
2017-11-12T09:27:21.114Z,9.27
2017-11-12T09:28:01.515Z,9.22
2017-11-12T09:28:41.942Z,9.34
2017-11-12T09:29:22.305Z,9.27
2017-11-12T09:30:02.731Z,9.35
2017-11-12T09:30:43.178Z,9.38
2017-11-12T09:31:23.587Z,9.32
2017-11-12T09:32:04.075Z,9.26
2017-11-12T09:32:45.646Z,9.34
2017-11-12T09:33:26.243Z,9.26
2017-11-12T09:34:06.962Z,9.2
2017-11-12T09:34:47.390Z,9.27
2017-11-12T09:35:27.967Z,9.35
2017-11-12T09:36:08.388Z,9.31
2017-11-12T09:36:48.822Z,9.32
2017-11-12T09:37:29.252Z,9.3
2017-11-12T09:38:09.716Z,9.35
2017-11-12T09:38:50.058Z,9.3
2017-11-12T09:39:30.865Z,9.31
2017-11-12T09:40:11.002Z,9.31
2017-11-12T09:40:51.345Z,9.31
2017-11-12T09:41:32.063Z,9.23